createdAt,value
2023-03-04T00:00:35.538Z,79.57
2023-03-04T00:01:54.638Z,79.13
2023-03-04T00:02:58.009Z,79.99
2023-03-04T00:04:00.855Z,79.57
2023-03-04T00:05:04.019Z,79.47
2023-03-04T00:06:07.390Z,79.02
2023-03-04T00:07:10.307Z,79.56
2023-03-04T00:08:13.258Z,79.35
2023-03-04T00:09:16.138Z,79.16
2023-03-04T00:10:19.036Z,79.12
2023-03-04T00:11:21.873Z,79.06
2023-03-04T00:12:24.761Z,78.91
2023-03-04T00:13:27.911Z,79.27
2023-03-04T00:14:30.927Z,79.47
2023-03-04T00:15:33.793Z,79.16
2023-03-04T00:16:36.709Z,79.03
2023-03-04T00:17:39.524Z,79.38
2023-03-04T00:18:42.536Z,79.22
2023-03-04T00:19:45.436Z,79.34
2023-03-04T00:20:49.777Z,78.96
2023-03-04T00:21:52.679Z,78.92
2023-03-04T00:22:55.552Z,79.27
2023-03-04T00:23:58.627Z,78.99
2023-03-04T00:25:01.618Z,79.21
2023-03-04T00:26:04.665Z,79.07
2023-03-04T00:27:07.568Z,79.16
2023-03-04T00:28:10.571Z,79.52
2023-03-04T00:29:13.730Z,78.96
2023-03-04T00:30:16.924Z,79.15
2023-03-04T00:31:19.789Z,79.15
2023-03-04T00:32:23.285Z,79.10
2023-03-04T00:33:26.171Z,78.99
2023-03-04T00:34:30.740Z,79.05
2023-03-04T00:35:35.368Z,79.38
2023-03-04T00:36:38.220Z,78.83
2023-03-04T00:37:41.370Z,79.00
2023-03-04T00:38:44.266Z,79.24
2023-03-04T00:39:47.176Z,79.15
2023-03-04T00:40:50.176Z,78.82
2023-03-04T00:41:52.971Z,78.92
2023-03-04T00:42:55.847Z,79.06
2023-03-04T00:43:58.705Z,78.87
2023-03-04T00:45:01.857Z,78.89
2023-03-04T00:46:05.380Z,78.71
2023-03-04T00:47:08.328Z,78.60
2023-03-04T00:48:11.618Z,79.21
2023-03-04T00:49:14.782Z,78.54
2023-03-04T00:50:17.952Z,78.71
2023-03-04T00:51:20.848Z,78.98
2023-03-04T00:52:23.996Z,78.65
2023-03-04T00:53:26.826Z,78.72
2023-03-04T00:54:29.674Z,78.53
2023-03-04T00:55:32.554Z,78.56
2023-03-04T00:56:35.422Z,78.68
2023-03-04T00:57:38.309Z,78.56
2023-03-04T00:58:42.951Z,78.86
2023-03-04T00:59:46.413Z,78.67
2023-03-04T01:00:49.454Z,78.77
2023-03-04T01:01:52.337Z,78.66
2023-03-04T01:02:55.331Z,78.82
2023-03-04T01:03:58.233Z,78.86
2023-03-04T01:05:01.195Z,78.79
2023-03-04T01:06:04.305Z,78.79
2023-03-04T01:07:07.635Z,78.57
2023-03-04T01:08:10.482Z,78.48
2023-03-04T01:09:13.299Z,78.47
2023-03-04T01:10:16.530Z,78.75
2023-03-04T01:11:19.579Z,78.71
2023-03-04T01:12:23.399Z,78.60
2023-03-04T01:13:26.246Z,78.85
2023-03-04T01:14:29.142Z,78.91
2023-03-04T01:15:32.205Z,78.77
2023-03-04T01:16:35.302Z,79.10
2023-03-04T01:17:38.474Z,78.64
2023-03-04T01:18:41.329Z,78.96
2023-03-04T01:19:45.254Z,78.86
2023-03-04T01:20:48.090Z,78.60
2023-03-04T01:21:51.308Z,78.76
2023-03-04T01:22:54.233Z,78.70
2023-03-04T01:23:57.092Z,78.92
2023-03-04T01:24:59.980Z,78.68
2023-03-04T01:26:03.312Z,78.72
2023-03-04T01:27:06.325Z,78.61
2023-03-04T01:28:09.243Z,78.60
2023-03-04T01:29:12.084Z,78.78
2023-03-04T01:30:15.023Z,78.54
2023-03-04T01:31:17.981Z,78.74
2023-03-04T01:32:21.081Z,79.08
2023-03-04T01:33:24.909Z,78.88
2023-03-04T01:34:27.938Z,79.03
2023-03-04T01:35:30.853Z,78.88
2023-03-04T01:36:33.879Z,78.93
2023-03-04T01:37:36.787Z,78.96
2023-03-04T01:38:39.630Z,78.51
2023-03-04T01:39:43.709Z,78.64
2023-03-04T01:40:46.669Z,79.04
2023-03-04T01:41:49.835Z,78.97
2023-03-04T01:42:53.363Z,78.89
2023-03-04T01:44:00.862Z,79.08
2023-03-04T01:45:05.021Z,78.74
2023-03-04T01:46:10.347Z,78.71
2023-03-04T01:47:14.054Z,78.90
2023-03-04T01:48:20.322Z,78.85
2023-03-04T01:49:23.549Z,78.56
2023-03-04T01:50:35.607Z,79.02
2023-03-04T01:51:38.421Z,78.86
2023-03-04T01:52:42.981Z,78.65
2023-03-04T01:53:50.189Z,78.63
2023-03-04T01:54:53.039Z,78.43
2023-03-04T01:56:09.575Z,78.46
2023-03-04T01:57:21.733Z,78.41
2023-03-04T01:58:30.206Z,78.48
2023-03-04T01:59:33.102Z,78.58
2023-03-04T02:00:37.311Z,78.57
2023-03-04T02:01:43.953Z,78.45
2023-03-04T02:02:49.999Z,78.65
2023-03-04T02:03:53.093Z,78.20
2023-03-04T02:04:56.079Z,78.38
2023-03-04T02:05:58.924Z,78.45
2023-03-04T02:07:03.799Z,78.34
2023-03-04T02:08:07.685Z,78.44
2023-03-04T02:09:12.902Z,78.44
2023-03-04T02:10:15.978Z,78.29
2023-03-04T02:11:18.826Z,78.27
2023-03-04T02:12:21.858Z,77.95
2023-03-04T02:13:24.879Z,78.23
2023-03-04T02:14:28.246Z,78.29
2023-03-04T02:15:31.625Z,78.14
2023-03-04T02:16:34.886Z,78.01
2023-03-04T02:17:38.056Z,78.32
2023-03-04T02:18:40.958Z,78.23
2023-03-04T02:20:11.778Z,78.18
2023-03-04T02:21:18.916Z,77.90
2023-03-04T02:22:21.858Z,77.73
2023-03-04T02:23:52.688Z,78.27
2023-03-04T02:25:07.895Z,78.34
2023-03-04T02:26:22.602Z,77.98
2023-03-04T02:27:27.299Z,77.76
2023-03-04T02:28:30.160Z,78.01
2023-03-04T02:29:33.088Z,77.74
2023-03-04T02:32:39.756Z,77.99
2023-03-04T02:33:42.836Z,77.82
2023-03-04T02:34:48.582Z,77.83
2023-03-04T02:35:51.494Z,78.20
2023-03-04T02:36:56.055Z,77.74
2023-03-04T02:37:58.897Z,77.89
2023-03-04T02:39:07.196Z,77.83
2023-03-04T02:40:18.718Z,78.09
2023-03-04T02:41:26.709Z,77.83
2023-03-04T02:42:29.578Z,77.88
2023-03-04T02:43:33.011Z,78.03
2023-03-04T02:44:39.111Z,78.20
2023-03-04T02:45:50.373Z,77.81
2023-03-04T02:46:54.169Z,77.82
2023-03-04T02:47:56.954Z,77.75
2023-03-04T02:48:59.952Z,77.97
2023-03-04T02:50:05.127Z,78.03
2023-03-04T02:51:07.961Z,78.45
2023-03-04T02:52:22.543Z,78.24
2023-03-04T02:53:25.641Z,78.24
2023-03-04T02:54:29.473Z,78.71
2023-03-04T02:55:33.346Z,78.23
2023-03-04T02:56:36.523Z,78.74
2023-03-04T02:57:39.380Z,78.28
2023-03-04T02:58:42.291Z,78.59
2023-03-04T02:59:46.132Z,79.19
2023-03-04T03:00:52.764Z,79.14
2023-03-04T03:01:56.030Z,78.96
2023-03-04T03:02:59.030Z,79.03
2023-03-04T03:04:01.880Z,79.71
2023-03-04T03:05:05.528Z,79.13
2023-03-04T03:06:09.010Z,79.14
2023-03-04T03:07:11.934Z,79.03
2023-03-04T03:08:14.879Z,79.54
2023-03-04T03:09:18.434Z,79.18
2023-03-04T03:10:21.697Z,79.39
2023-03-04T03:11:26.749Z,79.40
2023-03-04T03:12:30.481Z,79.64
2023-03-04T03:13:33.311Z,79.32
2023-03-04T03:14:36.706Z,79.47
2023-03-04T03:15:42.383Z,79.91
2023-03-04T03:16:45.686Z,79.86
2023-03-04T03:17:48.908Z,79.50
2023-03-04T03:18:51.813Z,79.43
2023-03-04T03:19:54.686Z,79.72
2023-03-04T03:20:57.585Z,79.73
2023-03-04T03:22:00.439Z,79.52
2023-03-04T03:23:04.177Z,79.29
2023-03-04T03:24:07.006Z,79.56
2023-03-04T03:25:11.717Z,79.47
2023-03-04T03:26:14.847Z,79.45
2023-03-04T03:27:17.673Z,79.55
2023-03-04T03:28:20.615Z,79.60
2023-03-04T03:29:23.568Z,79.67
2023-03-04T03:30:26.806Z,79.92
2023-03-04T03:31:29.809Z,79.56
2023-03-04T03:32:32.967Z,79.71
2023-03-04T03:33:35.873Z,79.91
2023-03-04T03:34:38.794Z,79.78
2023-03-04T03:35:41.631Z,80.01
2023-03-04T03:36:44.560Z,79.71
2023-03-04T03:37:49.145Z,79.84
2023-03-04T03:38:52.015Z,79.97
2023-03-04T03:39:54.809Z,80.13
2023-03-04T03:40:57.663Z,80.12
2023-03-04T03:42:00.556Z,80.10
2023-03-04T03:43:03.701Z,79.92
2023-03-04T03:44:06.523Z,80.03
2023-03-04T03:45:09.777Z,79.97
2023-03-04T03:46:12.651Z,79.99
2023-03-04T03:47:15.973Z,79.77
2023-03-04T03:48:19.060Z,79.80
2023-03-04T03:49:21.878Z,79.89
2023-03-04T03:50:25.008Z,80.22
2023-03-04T03:51:27.856Z,80.19
2023-03-04T03:52:30.812Z,80.26
2023-03-04T03:53:33.799Z,80.16
2023-03-04T03:54:36.761Z,80.11
2023-03-04T03:55:39.743Z,80.32
2023-03-04T03:56:42.654Z,80.00
2023-03-04T03:57:45.510Z,80.13
2023-03-04T03:58:48.614Z,80.11
2023-03-04T03:59:51.413Z,80.13
2023-03-04T04:00:55.898Z,80.32
2023-03-04T04:02:01.037Z,80.04
2023-03-04T04:03:04.202Z,80.12
2023-03-04T04:04:07.307Z,80.17
2023-03-04T04:05:10.537Z,80.55
2023-03-04T04:06:13.495Z,80.15
2023-03-04T04:07:16.553Z,80.16
2023-03-04T04:08:19.638Z,80.03
2023-03-04T04:09:22.510Z,80.04
2023-03-04T04:10:25.306Z,79.91
2023-03-04T04:11:28.197Z,79.94
2023-03-04T04:12:31.679Z,80.15
2023-03-04T04:13:34.726Z,79.73
2023-03-04T04:14:37.600Z,79.95
2023-03-04T04:15:40.587Z,79.85
2023-03-04T04:16:43.552Z,79.89
2023-03-04T04:17:46.424Z,79.79
2023-03-04T04:18:49.461Z,79.65
2023-03-04T04:19:52.339Z,79.98
2023-03-04T04:20:55.240Z,79.87
2023-03-04T04:21:58.094Z,79.61
2023-03-04T04:23:01.014Z,79.83
2023-03-04T04:24:04.243Z,80.00
2023-03-04T04:25:10.526Z,79.98
2023-03-04T04:26:13.555Z,79.90
2023-03-04T04:27:16.424Z,79.99
2023-03-04T04:28:19.208Z,79.73
2023-03-04T04:29:23.244Z,79.86
2023-03-04T04:30:26.254Z,80.04
2023-03-04T04:31:29.144Z,79.97
2023-03-04T04:32:31.910Z,80.40
2023-03-04T04:33:35.314Z,79.92
2023-03-04T04:34:38.244Z,79.90
2023-03-04T04:35:41.241Z,79.93
2023-03-04T04:36:44.178Z,79.98
2023-03-04T04:37:47.018Z,80.15
2023-03-04T04:38:49.837Z,79.97
2023-03-04T04:39:55.453Z,80.38
2023-03-04T04:40:59.311Z,80.09
2023-03-04T04:42:02.115Z,79.91
2023-03-04T04:43:05.046Z,79.89
2023-03-04T04:44:09.011Z,80.35
2023-03-04T04:45:11.955Z,80.27
2023-03-04T04:46:15.950Z,80.19
2023-03-04T04:47:19.005Z,80.23
2023-03-04T04:48:21.870Z,80.06
2023-03-04T04:49:24.772Z,80.16
2023-03-04T04:50:28.141Z,80.36
2023-03-04T04:51:31.250Z,80.56
2023-03-04T04:52:34.127Z,80.39
2023-03-04T04:53:37.717Z,80.26
2023-03-04T04:54:40.622Z,80.67
2023-03-04T04:55:43.440Z,80.51
2023-03-04T04:56:46.210Z,80.69
2023-03-04T04:57:49.057Z,80.45
2023-03-04T04:58:53.984Z,80.37
2023-03-04T04:59:56.778Z,80.54
2023-03-04T05:00:59.730Z,80.50
2023-03-04T05:02:02.627Z,80.20
2023-03-04T05:03:05.477Z,80.22
2023-03-04T05:04:08.427Z,80.81
2023-03-04T05:05:11.293Z,80.46
2023-03-04T05:06:14.174Z,80.56
2023-03-04T05:07:17.054Z,80.38
2023-03-04T05:08:19.886Z,80.49
2023-03-04T05:09:23.105Z,80.41
2023-03-04T05:10:25.948Z,80.69
2023-03-04T05:11:28.822Z,80.46
2023-03-04T05:12:31.686Z,80.43
2023-03-04T05:13:35.333Z,80.07
2023-03-04T05:14:38.232Z,80.28
2023-03-04T05:15:41.075Z,80.70
2023-03-04T05:16:44.168Z,80.30
2023-03-04T05:17:46.999Z,80.70
2023-03-04T05:18:49.887Z,80.42
2023-03-04T05:19:52.698Z,80.35
2023-03-04T05:21:06.240Z,80.65
2023-03-04T05:22:09.294Z,80.62
2023-03-04T05:23:12.165Z,80.62
2023-03-04T05:24:14.967Z,80.69
2023-03-04T05:25:17.848Z,80.38
2023-03-04T05:26:20.856Z,80.55
2023-03-04T05:27:23.917Z,80.50
2023-03-04T05:28:26.810Z,80.32
2023-03-04T05:29:29.655Z,80.52
2023-03-04T05:30:32.517Z,80.49
2023-03-04T05:31:35.395Z,80.40
2023-03-04T05:32:38.372Z,80.54
2023-03-04T05:33:41.236Z,80.54
2023-03-04T05:34:44.047Z,80.33
2023-03-04T05:35:48.873Z,80.30
2023-03-04T05:36:51.748Z,80.35
2023-03-04T05:37:55.085Z,80.25
2023-03-04T05:38:57.899Z,80.11
2023-03-04T05:40:00.749Z,80.28
2023-03-04T05:41:06.799Z,80.22
2023-03-04T05:42:09.587Z,80.22
2023-03-04T05:43:13.305Z,80.05
2023-03-04T05:44:16.294Z,79.96
2023-03-04T05:45:19.401Z,80.12
2023-03-04T05:46:25.764Z,79.71
2023-03-04T05:47:28.825Z,79.92
2023-03-04T05:48:32.197Z,80.04
2023-03-04T05:49:35.000Z,79.89
2023-03-04T05:50:38.052Z,79.86
2023-03-04T05:51:40.834Z,79.81
2023-03-04T05:52:43.886Z,79.63
2023-03-04T05:53:46.988Z,79.89
2023-03-04T05:54:49.839Z,79.54
2023-03-04T05:55:52.772Z,79.61
2023-03-04T05:56:56.148Z,79.53
2023-03-04T05:57:59.053Z,79.54
2023-03-04T05:59:01.914Z,79.59
2023-03-04T06:00:05.914Z,79.63
2023-03-04T06:01:15.494Z,79.40
2023-03-04T06:02:18.295Z,79.45
2023-03-04T06:03:22.606Z,79.37
2023-03-04T06:04:25.518Z,79.29
2023-03-04T06:05:28.407Z,79.28
2023-03-04T06:06:31.849Z,79.23
2023-03-04T06:07:34.786Z,79.50
2023-03-04T06:08:37.642Z,79.29
2023-03-04T06:09:40.485Z,79.12
2023-03-04T06:10:43.314Z,78.97
2023-03-04T06:11:46.256Z,78.97
2023-03-04T06:12:49.163Z,79.11
2023-03-04T06:13:51.982Z,79.03
2023-03-04T06:14:55.549Z,78.75
2023-03-04T06:15:59.898Z,79.05
2023-03-04T06:17:02.773Z,78.81
2023-03-04T06:18:07.522Z,78.87
2023-03-04T06:19:10.345Z,78.97
2023-03-04T06:20:13.522Z,78.67
2023-03-04T06:21:16.431Z,78.61
2023-03-04T06:22:19.315Z,78.62
2023-03-04T06:23:22.058Z,78.79
2023-03-04T06:24:25.003Z,78.83
2023-03-04T06:25:27.879Z,78.84
2023-03-04T06:26:31.271Z,78.75
2023-03-04T06:27:34.080Z,78.75
2023-03-04T06:28:36.928Z,78.56
2023-03-04T06:29:39.857Z,78.54
2023-03-04T06:30:42.710Z,78.80
2023-03-04T06:31:45.699Z,78.51
2023-03-04T06:32:48.617Z,78.55
2023-03-04T06:33:51.646Z,78.28
2023-03-04T06:34:54.475Z,78.37
2023-03-04T06:35:57.490Z,78.68
2023-03-04T06:37:00.790Z,78.29
2023-03-04T06:38:03.803Z,78.34
2023-03-04T06:39:07.613Z,78.28
2023-03-04T06:40:11.760Z,78.33
2023-03-04T06:41:15.013Z,78.50
2023-03-04T06:42:18.040Z,77.80
2023-03-04T06:43:21.613Z,77.94
2023-03-04T06:44:24.625Z,78.04
2023-03-04T06:45:27.663Z,77.64
2023-03-04T06:46:30.728Z,77.72
2023-03-04T06:47:33.613Z,77.64
2023-03-04T06:48:36.693Z,77.81
2023-03-04T06:49:39.901Z,77.47
2023-03-04T06:50:42.676Z,77.53
2023-03-04T06:51:45.671Z,77.53
2023-03-04T06:52:49.383Z,77.28
2023-03-04T06:53:52.183Z,77.45
2023-03-04T06:54:55.004Z,77.49
2023-03-04T06:55:57.821Z,77.41
2023-03-04T06:57:00.702Z,77.38
2023-03-04T06:58:03.556Z,77.05
2023-03-04T06:59:06.378Z,76.97
2023-03-04T07:00:09.948Z,76.82
2023-03-04T07:01:21.333Z,76.77
2023-03-04T07:02:24.234Z,76.37
2023-03-04T07:03:27.193Z,76.20
2023-03-04T07:04:31.475Z,76.04
2023-03-04T07:05:34.264Z,76.01
2023-03-04T07:06:37.122Z,76.01
2023-03-04T07:07:39.948Z,75.63
2023-03-04T07:08:43.814Z,75.73
2023-03-04T07:09:46.693Z,75.73
2023-03-04T07:10:49.673Z,75.12
2023-03-04T07:11:52.569Z,75.39
2023-03-04T07:12:55.582Z,75.23
2023-03-04T07:13:58.504Z,75.03
2023-03-04T07:15:01.638Z,74.97
2023-03-04T07:16:06.839Z,75.08
2023-03-04T07:17:09.737Z,73.76
2023-03-04T07:18:12.614Z,73.45
2023-03-04T07:19:15.751Z,73.82
2023-03-04T07:20:18.684Z,73.71
2023-03-04T07:21:21.891Z,73.53
2023-03-04T07:22:24.856Z,73.27
2023-03-04T07:23:28.145Z,73.64
2023-03-04T07:24:31.183Z,73.30
2023-03-04T07:25:37.136Z,73.24
2023-03-04T07:26:40.318Z,72.94
2023-03-04T07:27:43.131Z,72.61
2023-03-04T07:28:46.574Z,72.48
2023-03-04T07:29:49.410Z,71.97
2023-03-04T07:30:52.223Z,72.24
2023-03-04T07:31:55.702Z,71.96
2023-03-04T07:32:58.610Z,71.66
2023-03-04T07:34:04.762Z,71.76
2023-03-04T07:35:09.163Z,71.15
2023-03-04T07:36:15.003Z,70.19
2023-03-04T07:37:18.191Z,69.15
2023-03-04T07:38:21.086Z,69.78
2023-03-04T07:39:24.100Z,69.99
2023-03-04T07:40:27.285Z,69.99
2023-03-04T07:41:31.090Z,68.67
2023-03-04T07:42:34.719Z,68.29
2023-03-04T07:43:40.479Z,67.05
2023-03-04T07:44:43.388Z,67.74
2023-03-04T07:45:46.304Z,67.71
2023-03-04T07:46:49.252Z,66.20
2023-03-04T07:47:52.435Z,66.43
2023-03-04T07:48:56.574Z,66.61
2023-03-04T07:49:59.723Z,66.20
2023-03-04T07:51:24.036Z,66.97
2023-03-04T07:52:27.229Z,66.12
2023-03-04T07:53:31.273Z,64.39
2023-03-04T07:54:34.280Z,64.26
2023-03-04T07:55:37.115Z,64.65
2023-03-04T07:56:40.130Z,64.58
2023-03-04T07:57:44.317Z,63.41
2023-03-04T07:58:47.688Z,63.95
2023-03-04T07:59:50.508Z,63.72
2023-03-04T08:00:53.435Z,64.62
2023-03-04T08:01:56.433Z,64.29
2023-03-04T08:02:59.376Z,64.13
2023-03-04T08:04:04.797Z,61.81
2023-03-04T08:05:08.695Z,59.93
2023-03-04T08:06:14.875Z,59.28
2023-03-04T08:07:18.087Z,59.95
2023-03-04T08:08:20.979Z,58.58
2023-03-04T08:09:24.061Z,57.34
2023-03-04T08:10:27.477Z,57.38
2023-03-04T08:11:31.346Z,56.97
2023-03-04T08:12:35.443Z,55.44
2023-03-04T08:13:38.539Z,55.99
2023-03-04T08:14:41.597Z,55.60
2023-03-04T08:15:44.467Z,54.09
2023-03-04T08:16:47.439Z,53.64
2023-03-04T08:17:50.434Z,53.57
2023-03-04T08:18:56.027Z,54.29
2023-03-04T08:19:58.871Z,51.80
2023-03-04T08:21:01.902Z,53.17
2023-03-04T08:22:04.774Z,54.21
2023-03-04T08:23:07.715Z,50.82
2023-03-04T08:24:11.680Z,51.23
2023-03-04T08:25:14.844Z,52.48
2023-03-04T08:26:41.834Z,51.36
2023-03-04T08:27:45.192Z,52.12
2023-03-04T08:28:48.562Z,52.56
2023-03-04T08:29:51.502Z,52.29
2023-03-04T08:30:54.981Z,51.64
2023-03-04T08:31:58.618Z,52.42
2023-03-04T08:33:03.203Z,52.02
2023-03-04T08:34:08.746Z,52.22
2023-03-04T08:35:11.844Z,51.14
2023-03-04T08:36:16.155Z,50.54
2023-03-04T08:37:19.019Z,50.39
2023-03-04T08:38:21.920Z,51.81
2023-03-04T08:39:24.778Z,49.76
2023-03-04T08:40:27.789Z,51.05
2023-03-04T08:41:30.769Z,50.53
2023-03-04T08:42:33.585Z,49.43
2023-03-04T08:43:37.201Z,50.13
2023-03-04T08:44:40.050Z,50.11
2023-03-04T08:45:43.043Z,50.34
2023-03-04T08:46:45.878Z,50.81
2023-03-04T08:47:48.949Z,49.75
2023-03-04T08:48:51.919Z,50.13
2023-03-04T08:49:54.974Z,50.20
2023-03-04T08:50:58.155Z,50.13
2023-03-04T08:52:00.919Z,49.58
2023-03-04T08:53:03.944Z,50.02
2023-03-04T08:54:07.184Z,49.14
2023-03-04T08:55:10.376Z,49.26
2023-03-04T08:56:13.736Z,48.20
2023-03-04T08:57:17.063Z,48.59
2023-03-04T08:58:20.226Z,47.80
2023-03-04T08:59:23.254Z,48.33
2023-03-04T09:00:26.365Z,48.91
2023-03-04T09:01:29.394Z,47.79
2023-03-04T09:02:32.623Z,48.02
2023-03-04T09:03:36.352Z,48.66
2023-03-04T09:04:39.457Z,49.50
2023-03-04T09:05:44.925Z,48.15
2023-03-04T09:06:47.801Z,46.95
2023-03-04T09:07:50.819Z,46.15
2023-03-04T09:08:53.977Z,46.18
2023-03-04T09:09:56.931Z,46.37
2023-03-04T09:11:00.441Z,46.43
2023-03-04T09:12:03.918Z,46.83
2023-03-04T09:13:06.892Z,46.14
2023-03-04T09:14:10.040Z,46.57
2023-03-04T09:15:13.127Z,45.76
2023-03-04T09:16:16.586Z,45.08
2023-03-04T09:17:19.450Z,44.34
2023-03-04T09:18:23.588Z,44.85
2023-03-04T09:19:28.021Z,46.09
2023-03-04T09:20:32.655Z,45.93
2023-03-04T09:21:36.166Z,46.29
2023-03-04T09:22:40.536Z,45.60
2023-03-04T09:23:46.476Z,45.32
2023-03-04T09:24:49.333Z,44.56
2023-03-04T09:25:52.217Z,42.62
2023-03-04T09:26:55.278Z,43.35
2023-03-04T09:27:58.261Z,43.33
2023-03-04T09:29:02.425Z,43.01
2023-03-04T09:30:05.911Z,42.38
2023-03-04T09:31:13.251Z,40.89
2023-03-04T09:32:16.564Z,41.43
2023-03-04T09:33:19.403Z,42.49
2023-03-04T09:34:22.219Z,42.12
2023-03-04T09:35:25.215Z,42.38
2023-03-04T09:36:28.176Z,42.56
2023-03-04T09:37:31.451Z,42.73
2023-03-04T09:38:34.244Z,43.34
2023-03-04T09:39:37.150Z,41.36
2023-03-04T09:40:43.441Z,41.74
2023-03-04T09:41:50.492Z,43.24
2023-03-04T09:43:03.329Z,43.15
2023-03-04T09:44:36.711Z,42.66
2023-03-04T09:46:12.396Z,42.55
2023-03-04T09:47:20.612Z,43.11
2023-03-04T09:48:28.033Z,41.97
2023-03-04T09:49:32.264Z,42.14
2023-03-04T09:50:41.377Z,42.06
2023-03-04T09:51:52.409Z,42.60
2023-03-04T09:53:22.806Z,42.61
2023-03-04T09:54:45.432Z,42.12
2023-03-04T09:55:52.071Z,43.13
2023-03-04T09:57:25.185Z,43.41
2023-03-04T09:58:47.483Z,42.93
2023-03-04T09:59:54.899Z,42.40
2023-03-04T10:01:11.156Z,42.23
2023-03-04T10:02:40.230Z,42.10
2023-03-04T10:03:48.624Z,42.73
2023-03-04T10:05:00.090Z,42.21
2023-03-04T10:06:07.644Z,42.57
2023-03-04T10:07:21.517Z,43.09
2023-03-04T10:09:02.036Z,42.68
2023-03-04T10:10:18.013Z,43.15
2023-03-04T10:11:33.295Z,43.12
2023-03-04T10:12:41.109Z,42.95
2023-03-04T10:14:17.956Z,42.63
2023-03-04T10:15:44.721Z,43.24
2023-03-04T10:17:13.852Z,42.49
2023-03-04T10:18:23.099Z,42.69
2023-03-04T10:19:49.091Z,42.19
2023-03-04T10:21:04.403Z,41.93
2023-03-04T10:22:21.083Z,42.06
2023-03-04T10:23:29.720Z,42.08
2023-03-04T10:24:32.580Z,42.18
2023-03-04T10:25:40.888Z,42.39
2023-03-04T10:26:51.842Z,40.91
2023-03-04T10:28:10.253Z,40.03
2023-03-04T10:29:17.418Z,39.64
2023-03-04T10:30:32.528Z,39.82
2023-03-04T10:31:39.239Z,39.56
2023-03-04T10:32:47.905Z,39.49
2023-03-04T10:33:50.934Z,40.30
2023-03-04T10:34:53.738Z,40.23
2023-03-04T10:36:24.598Z,40.32
2023-03-04T10:37:43.086Z,40.31
2023-03-04T10:38:45.941Z,39.94
2023-03-04T10:39:50.719Z,40.55
2023-03-04T10:40:53.502Z,39.95
2023-03-04T10:42:25.039Z,39.92
2023-03-04T10:43:28.373Z,40.11
2023-03-04T10:44:33.857Z,40.20
2023-03-04T10:45:40.394Z,40.89
2023-03-04T10:46:46.855Z,40.20
2023-03-04T10:47:55.338Z,39.11
2023-03-04T10:48:59.105Z,38.77
2023-03-04T10:50:05.590Z,38.79
2023-03-04T10:51:22.384Z,38.73
2023-03-04T10:52:33.040Z,38.02
2023-03-04T10:53:43.336Z,38.66
2023-03-04T10:54:53.873Z,38.33
2023-03-04T10:55:56.579Z,37.83
2023-03-04T10:57:02.768Z,38.13
2023-03-04T10:58:06.706Z,36.99
2023-03-04T10:59:32.326Z,36.93
2023-03-04T11:00:38.357Z,36.76
2023-03-04T11:01:41.166Z,36.50
2023-03-04T11:02:45.807Z,37.70
2023-03-04T11:03:49.981Z,38.08
2023-03-04T11:05:09.503Z,38.36
2023-03-04T11:06:22.964Z,36.60
2023-03-04T11:07:27.286Z,35.64
2023-03-04T11:08:30.084Z,33.90
2023-03-04T11:09:32.903Z,34.18
2023-03-04T11:10:38.588Z,34.76
2023-03-04T11:11:46.162Z,35.30
2023-03-04T11:13:16.070Z,35.79
2023-03-04T11:14:34.809Z,35.83
2023-03-04T11:15:58.612Z,36.55
2023-03-04T11:17:17.286Z,35.62
2023-03-04T11:18:29.157Z,33.67
2023-03-04T11:19:39.414Z,35.31
2023-03-04T11:20:48.473Z,36.27
2023-03-04T11:21:52.629Z,35.60
2023-03-04T11:23:00.521Z,34.36
2023-03-04T11:24:28.250Z,35.19
2023-03-04T11:25:41.199Z,34.34
2023-03-04T11:26:52.054Z,33.21
2023-03-04T11:28:15.306Z,33.06
2023-03-04T11:29:41.190Z,35.07
2023-03-04T11:31:04.670Z,34.98
2023-03-04T11:32:45.722Z,35.53
2023-03-04T11:33:51.335Z,34.92
2023-03-04T11:35:21.807Z,35.31
2023-03-04T11:36:50.802Z,35.05
2023-03-04T11:37:59.883Z,34.01
2023-03-04T11:39:17.408Z,34.00
2023-03-04T11:40:36.767Z,34.22
2023-03-04T11:41:47.904Z,35.67
2023-03-04T11:42:57.621Z,35.36
2023-03-04T11:44:06.348Z,34.95
2023-03-04T11:45:41.529Z,35.76
2023-03-04T11:47:00.118Z,34.67
2023-03-04T11:48:24.173Z,33.88
2023-03-04T11:49:49.702Z,34.25
2023-03-04T11:51:07.442Z,33.42
2023-03-04T11:52:22.528Z,32.90
2023-03-04T11:54:01.059Z,33.88
2023-03-04T11:55:29.001Z,32.11
2023-03-04T11:56:42.379Z,32.25
2023-03-04T11:57:55.256Z,31.35
2023-03-04T11:59:16.644Z,31.11
2023-03-04T12:00:22.738Z,30.27
2023-03-04T12:01:50.482Z,31.07
2023-03-04T12:03:13.084Z,31.23
2023-03-04T12:04:28.752Z,28.80
2023-03-04T12:05:57.331Z,29.10
2023-03-04T12:07:09.748Z,29.82
2023-03-04T12:08:18.595Z,29.69
2023-03-04T12:09:48.124Z,29.62
2023-03-04T12:11:08.844Z,30.96
2023-03-04T12:12:12.038Z,30.40
2023-03-04T12:13:31.225Z,30.46
2023-03-04T12:14:49.074Z,30.49
2023-03-04T12:15:57.967Z,30.70
2023-03-04T12:17:06.490Z,30.46
2023-03-04T12:18:33.823Z,31.18
2023-03-04T12:19:48.101Z,30.73
2023-03-04T12:20:59.350Z,30.79
2023-03-04T12:22:09.379Z,31.29
2023-03-04T12:23:26.601Z,30.52
2023-03-04T12:25:02.652Z,30.96
2023-03-04T12:26:20.803Z,31.23
2023-03-04T12:27:51.852Z,29.96
2023-03-04T12:29:01.436Z,29.67
2023-03-04T12:30:38.609Z,29.49
2023-03-04T12:31:43.293Z,30.04
2023-03-04T12:33:24.899Z,29.14
2023-03-04T12:34:30.868Z,29.24
2023-03-04T12:35:52.676Z,29.18
2023-03-04T12:37:13.788Z,29.56
2023-03-04T12:38:39.230Z,29.64
2023-03-04T12:39:49.575Z,30.30
2023-03-04T12:41:11.412Z,30.02
2023-03-04T12:42:17.420Z,29.37
2023-03-04T12:43:28.636Z,29.55
2023-03-04T12:44:37.309Z,29.52
2023-03-04T12:45:45.143Z,30.27
2023-03-04T12:47:22.940Z,29.83
2023-03-04T12:48:39.769Z,29.67
2023-03-04T12:50:08.720Z,30.45
2023-03-04T12:51:26.605Z,30.72
2023-03-04T12:52:39.562Z,30.03
2023-03-04T12:54:13.274Z,30.25
2023-03-04T12:55:19.306Z,30.33
2023-03-04T12:56:57.875Z,30.71
2023-03-04T12:58:01.298Z,30.77
2023-03-04T12:59:05.786Z,30.85
2023-03-04T13:00:43.244Z,30.69
2023-03-04T13:02:03.942Z,30.03
2023-03-04T13:03:19.149Z,30.90
2023-03-04T13:04:40.129Z,31.31
2023-03-04T13:06:16.818Z,31.77
2023-03-04T13:08:00.816Z,31.36
2023-03-04T13:09:16.042Z,31.10
2023-03-04T13:10:23.691Z,30.30
2023-03-04T13:11:26.575Z,30.18
2023-03-04T13:12:45.655Z,30.19
2023-03-04T13:14:03.062Z,29.25
2023-03-04T13:15:05.806Z,30.07
2023-03-04T13:16:12.071Z,29.72
2023-03-04T13:17:36.522Z,29.10
2023-03-04T13:18:39.627Z,29.86
2023-03-04T13:19:47.263Z,30.14
2023-03-04T13:21:06.653Z,29.63
2023-03-04T13:22:32.821Z,29.28
2023-03-04T13:23:38.280Z,28.81
2023-03-04T13:24:51.045Z,28.98
2023-03-04T13:25:56.736Z,29.36
2023-03-04T13:26:59.862Z,28.14
2023-03-04T13:28:05.700Z,28.59
2023-03-04T13:29:29.202Z,27.93
2023-03-04T13:30:32.170Z,28.77
2023-03-04T13:32:11.645Z,27.84
2023-03-04T13:33:14.632Z,28.47
2023-03-04T13:34:46.573Z,28.47
2023-03-04T13:36:02.279Z,26.98
2023-03-04T13:37:30.160Z,27.52
2023-03-04T13:38:37.358Z,26.35
2023-03-04T13:39:40.403Z,26.75
2023-03-04T13:40:43.497Z,26.72
2023-03-04T13:41:49.358Z,26.15
2023-03-04T13:42:52.433Z,26.29
2023-03-04T13:44:03.796Z,26.44
2023-03-04T13:45:37.251Z,25.95
2023-03-04T13:46:43.256Z,26.96
2023-03-04T13:47:47.950Z,26.33
2023-03-04T13:48:50.847Z,26.85
2023-03-04T13:50:22.432Z,25.83
2023-03-04T13:51:45.122Z,27.04
2023-03-04T13:52:49.135Z,27.45
2023-03-04T13:53:58.681Z,27.20
2023-03-04T13:55:40.374Z,27.59
2023-03-04T13:56:47.696Z,28.03
2023-03-04T13:57:51.150Z,28.03
2023-03-04T13:59:09.446Z,27.93
2023-03-04T14:00:13.979Z,28.58
2023-03-04T14:01:30.428Z,28.97
2023-03-04T14:02:34.662Z,29.35
2023-03-04T14:03:37.611Z,29.62
2023-03-04T14:04:44.084Z,30.04
2023-03-04T14:05:47.021Z,30.31
2023-03-04T14:06:51.918Z,30.49
2023-03-04T14:07:54.823Z,30.73
2023-03-04T14:08:58.294Z,31.20
2023-03-04T14:10:11.710Z,31.58
2023-03-04T14:11:28.678Z,31.87
2023-03-04T14:12:46.500Z,32.26
2023-03-04T14:13:49.841Z,32.70
2023-03-04T14:15:18.083Z,32.79
2023-03-04T14:16:23.805Z,33.96
2023-03-04T14:17:38.968Z,34.65
2023-03-04T14:18:42.001Z,34.91
2023-03-04T14:19:46.526Z,35.54
2023-03-04T14:20:49.842Z,36.16
2023-03-04T14:21:53.057Z,35.48
2023-03-04T14:22:58.216Z,36.06
2023-03-04T14:24:22.482Z,36.17
2023-03-04T14:25:31.347Z,36.37